Time;durP1;ratioP1;P1;durP2;ratioP2;P2;SDS_P1;SDS_P2;PMS_P1;PMS_P2;Temp;Humidity;BMP_temperature;BMP_pressure;BME280_temperature;BME280_humidity;BME280_pressure;Samples;Min_cycle;Max_cycle;Signal;HPM_P1;HPM_P2
2021/12/02 00:01:09;;;;;;;7.00;6.73;;;6.90;99.90;;;;;;4914631;29;20190;-75
2021/12/02 00:03:36;;;;;;;6.33;6.00;;;6.80;99.90;;;;;;4916684;29;20179;-76
2021/12/02 00:06:03;;;;;;;6.57;6.30;;;6.80;99.90;;;;;;4915713;29;20183;-77
2021/12/02 00:08:29;;;;;;;6.80;6.27;;;6.80;99.90;;;;;;4915594;29;20210;-77
2021/12/02 00:10:55;;;;;;;4.90;4.70;;;6.80;99.90;;;;;;4915680;29;20217;-76
2021/12/02 00:13:24;;;;;;;4.50;4.40;;;6.80;99.90;;;;;;4916254;29;20268;-77
2021/12/02 00:16:01;;;;;;;4.50;4.30;;;6.80;99.90;;;;;;4917793;29;20241;-77
2021/12/02 00:21:07;;;;;;;5.00;4.80;;;6.80;99.90;;;;;;4916553;29;20182;-77
2021/12/02 00:23:44;;;;;;;4.80;4.67;;;6.80;99.90;;;;;;4917348;29;20654;-77
2021/12/02 00:26:16;;;;;;;4.97;4.77;;;6.70;99.90;;;;;;4931624;29;20201;-77
2021/12/02 00:28:43;;;;;;;16.30;5.17;;;6.70;99.90;;;;;;4916630;29;20293;-76
2021/12/02 00:31:17;;;;;;;5.67;5.27;;;6.70;99.90;;;;;;4916198;29;20217;-77
2021/12/02 00:33:52;;;;;;;5.93;5.70;;;6.70;99.90;;;;;;4930729;29;20259;-77
2021/12/02 00:36:20;;;;;;;7.00;6.70;;;6.60;99.90;;;;;;4916501;29;20235;-76
2021/12/02 00:38:47;;;;;;;7.70;7.40;;;6.60;99.90;;;;;;4914932;29;20293;-77
2021/12/02 00:41:15;;;;;;;8.10;7.80;;;6.60;99.90;;;;;;4916145;29;20189;-76
2021/12/02 00:43:43;;;;;;;7.33;6.93;;;6.60;99.90;;;;;;4916251;29;20261;-77
2021/12/02 00:46:15;;;;;;;8.43;8.10;;;6.60;99.90;;;;;;4916033;29;20197;-77
2021/12/02 00:48:42;;;;;;;7.63;7.17;;;6.50;99.90;;;;;;4914878;29;20209;-77
2021/12/02 00:51:09;;;;;;;8.37;8.07;;;6.60;99.90;;;;;;4914752;29;20602;-76
2021/12/02 00:53:42;;;;;;;10.93;10.43;;;6.50;99.90;;;;;;4930676;29;20205;-77
2021/12/02 00:56:10;;;;;;;11.27;10.77;;;6.50;99.90;;;;;;4930752;29;20593;-76
2021/12/02 00:58:37;;;;;;;11.27;10.87;;;6.50;99.90;;;;;;4930417;29;20220;-77
2021/12/02 01:01:03;;;;;;;11.83;11.33;;;6.40;99.90;;;;;;4915900;29;20277;-77
2021/12/02 01:03:39;;;;;;;11.10;10.63;;;6.40;99.90;;;;;;4930341;29;20183;-77
2021/12/02 01:06:06;;;;;;;11.83;11.23;;;6.40;99.90;;;;;;4930595;29;20197;-77
2021/12/02 01:08:34;;;;;;;10.00;9.60;;;6.30;99.90;;;;;;4930401;29;20693;-76
2021/12/02 01:11:00;;;;;;;7.30;6.73;;;6.20;99.90;;;;;;4929637;29;20245;-77
2021/12/02 01:13:26;;;;;;;5.10;4.90;;;6.20;99.90;;;;;;4916398;29;20185;-77
2021/12/02 01:15:52;;;;;;;4.17;4.07;;;6.20;99.90;;;;;;4915751;29;20543;-77
2021/12/02 01:18:18;;;;;;;4.20;4.00;;;6.10;99.90;;;;;;4914611;29;20308;-77
2021/12/02 01:20:48;;;;;;;4.80;4.60;;;6.10;99.90;;;;;;4914181;29;20670;-76
2021/12/02 01:23:17;;;;;;;5.40;5.20;;;6.10;99.90;;;;;;4915883;29;20236;-75
2021/12/02 01:25:54;;;;;;;6.33;6.13;;;6.10;99.90;;;;;;4921770;29;20226;-76
2021/12/02 01:28:23;;;;;;;6.90;6.63;;;6.00;99.90;;;;;;4920587;29;20213;-77
2021/12/02 01:30:51;;;;;;;7.80;7.50;;;5.90;99.90;;;;;;4917802;29;20209;-76
2021/12/02 01:33:20;;;;;;;7.77;7.40;;;6.00;99.90;;;;;;4918587;29;20226;-76
2021/12/02 01:35:49;;;;;;;8.33;8.03;;;6.00;99.90;;;;;;4914600;29;20192;-77
2021/12/02 01:38:16;;;;;;;7.87;7.57;;;6.00;99.90;;;;;;4914580;29;20634;-77
2021/12/02 01:40:44;;;;;;;7.20;6.97;;;6.00;99.90;;;;;;4914254;29;20722;-77
2021/12/02 01:43:14;;;;;;;8.20;7.80;;;5.90;99.90;;;;;;4933403;29;20645;-77
2021/12/02 01:45:40;;;;;;;7.50;7.30;;;6.00;99.90;;;;;;4916944;29;20547;-77
2021/12/02 01:48:10;;;;;;;6.90;6.43;;;6.00;99.90;;;;;;4918453;29;20205;-77
2021/12/02 01:50:39;;;;;;;7.27;6.97;;;6.00;99.90;;;;;;4913718;29;20605;-76
2021/12/02 01:53:05;;;;;;;8.13;7.53;;;6.10;99.90;;;;;;4929228;29;20206;-77
2021/12/02 01:55:34;;;;;;;7.90;7.60;;;6.20;99.90;;;;;;4914147;29;20193;-77
2021/12/02 01:58:03;;;;;;;7.57;7.27;;;6.20;99.90;;;;;;4915113;29;20225;-76
2021/12/02 02:00:44;;;;;;;7.80;7.50;;;6.20;99.90;;;;;;4913463;29;20217;-77
2021/12/02 02:03:15;;;;;;;8.17;7.87;;;6.20;99.90;;;;;;4913910;29;20663;-76
2021/12/02 02:05:41;;;;;;;8.03;7.40;;;6.20;99.90;;;;;;4915086;29;20197;-77
2021/12/02 02:08:17;;;;;;;8.03;7.73;;;6.20;99.90;;;;;;4922733;29;20189;-77
2021/12/02 02:10:44;;;;;;;5.43;5.23;;;6.10;99.90;;;;;;4929454;29;20218;-77
2021/12/02 02:13:12;;;;;;;4.27;4.07;;;6.00;99.90;;;;;;4929516;29;20558;-76
2021/12/02 02:15:40;;;;;;;7.93;7.67;;;6.00;99.90;;;;;;4914996;29;20262;-77
2021/12/02 02:18:12;;;;;;;13.43;12.87;;;6.00;99.90;;;;;;4929176;29;20316;-76
2021/12/02 02:20:51;;;;;;;18.10;17.30;;;6.00;99.90;;;;;;4929765;29;20208;-76
2021/12/02 02:23:17;;;;;;;16.13;15.43;;;5.90;99.90;;;;;;4929546;29;20243;-77
2021/12/02 02:25:45;;;;;;;7.80;7.50;;;5.90;99.90;;;;;;4913415;29;20598;-77
2021/12/02 02:28:11;;;;;;;7.03;6.73;;;5.80;99.90;;;;;;4929771;29;20283;-77
2021/12/02 02:30:38;;;;;;;5.50;5.30;;;5.80;99.90;;;;;;4913269;29;20210;-77
2021/12/02 02:33:04;;;;;;;5.17;5.07;;;5.70;99.90;;;;;;4914437;29;20693;-77
2021/12/02 02:35:30;;;;;;;5.30;5.10;;;5.70;99.90;;;;;;4915639;29;20706;-76
2021/12/02 02:37:57;;;;;;;4.60;4.50;;;5.60;99.90;;;;;;4917846;29;20212;-76
2021/12/02 02:40:24;;;;;;;5.00;4.80;;;5.60;99.90;;;;;;4915295;29;20186;-76
2021/12/02 02:42:56;;;;;;;4.20;4.10;;;5.60;99.90;;;;;;4930544;29;20195;-77
2021/12/02 02:45:23;;;;;;;5.17;4.90;;;5.50;99.90;;;;;;4915166;29;20630;-77
2021/12/02 02:47:48;;;;;;;5.20;5.03;;;5.40;99.90;;;;;;4915357;29;20224;-76
2021/12/02 02:50:15;;;;;;;5.37;5.07;;;5.40;99.90;;;;;;4914706;29;20240;-77
2021/12/02 02:52:42;;;;;;;6.07;5.57;;;5.40;99.90;;;;;;4914769;29;20603;-76
2021/12/02 02:55:12;;;;;;;7.70;7.40;;;5.30;99.90;;;;;;4913571;29;20602;-76
2021/12/02 02:57:50;;;;;;;6.93;6.67;;;5.30;99.90;;;;;;4914127;29;20186;-76
2021/12/02 03:00:20;;;;;;;5.03;4.83;;;5.20;99.90;;;;;;4929097;29;20189;-76
2021/12/02 03:02:57;;;;;;;5.60;5.10;;;5.20;99.90;;;;;;4914913;29;20625;-76
2021/12/02 03:05:38;;;;;;;6.70;6.40;;;5.20;99.90;;;;;;4913568;29;20652;-77
2021/12/02 03:08:18;;;;;;;6.63;6.43;;;5.10;99.90;;;;;;4913573;29;20550;-77
2021/12/02 03:10:49;;;;;;;7.30;6.70;;;5.00;99.90;;;;;;4914169;29;20221;-77
2021/12/02 03:18:29;;;;;;;8.77;8.37;;;4.90;99.90;;;;;;4914042;29;20220;-76
2021/12/02 03:20:56;;;;;;;7.77;7.47;;;4.80;99.90;;;;;;4971680;23;20238;-79
2021/12/02 03:23:23;;;;;;;7.73;7.33;;;4.80;99.90;;;;;;4954798;28;20259;-79
2021/12/02 03:25:49;;;;;;;8.00;7.60;;;4.80;99.90;;;;;;4939235;29;20185;-79
2021/12/02 03:28:16;;;;;;;6.90;6.60;;;4.80;99.90;;;;;;4953059;28;20251;-79
2021/12/02 03:30:42;;;;;;;7.07;6.80;;;4.70;99.90;;;;;;4938204;29;20247;-79
2021/12/02 03:33:07;;;;;;;7.00;6.43;;;4.70;99.90;;;;;;4936998;29;20278;-79
2021/12/02 03:35:33;;;;;;;6.40;6.20;;;4.60;99.90;;;;;;4936721;29;20223;-79
2021/12/02 03:37:59;;;;;;;9.57;9.17;;;4.60;99.90;;;;;;4939898;29;20211;-79
2021/12/02 03:40:25;;;;;;;11.60;10.97;;;4.60;99.90;;;;;;4939530;29;20232;-79
2021/12/02 03:42:53;;;;;;;11.77;11.27;;;4.60;99.90;;;;;;4939538;29;20195;-79
2021/12/02 03:45:23;;;;;;;13.73;13.13;;;4.60;99.90;;;;;;4956215;29;20272;-79
2021/12/02 03:47:49;;;;;;;11.37;10.77;;;4.60;99.90;;;;;;4941246;28;20212;-79
2021/12/02 03:50:15;;;;;;;15.70;14.87;;;4.60;99.90;;;;;;4940307;29;20263;-79
2021/12/02 03:52:41;;;;;;;10.13;9.53;;;4.60;99.90;;;;;;4940610;29;20211;-79
2021/12/02 03:55:07;;;;;;;12.10;11.10;;;4.50;99.90;;;;;;4941351;29;20717;-79
2021/12/02 03:57:33;;;;;;;18.33;17.40;;;4.60;99.90;;;;;;4941230;29;20265;-78
2021/12/02 04:00:00;;;;;;;16.57;15.87;;;4.60;99.90;;;;;;4941184;29;20239;-79
2021/12/02 04:02:27;;;;;;;19.60;18.40;;;4.70;99.90;;;;;;4940999;29;20180;-78
2021/12/02 04:04:52;;;;;;;15.13;14.43;;;4.70;99.90;;;;;;4945800;29;20185;-78
2021/12/02 04:07:20;;;;;;;19.70;18.80;;;4.70;99.90;;;;;;4960286;28;20208;-78
2021/12/02 04:09:47;;;;;;;15.83;15.10;;;4.70;99.90;;;;;;4943866;29;20583;-78
2021/12/02 04:12:31;;;;;;;15.90;15.10;;;4.70;99.90;;;;;;4958176;28;20271;-79
2021/12/02 04:17:39;;;;;;;12.40;11.60;;;4.80;99.90;;;;;;4942719;29;20184;-79
2021/12/02 04:20:06;;;;;;;16.07;15.37;;;4.90;99.90;;;;;;4941558;29;20730;-79
2021/12/02 04:22:32;;;;;;;12.80;12.30;;;4.80;99.90;;;;;;4940009;29;20196;-79
2021/12/02 04:24:58;;;;;;;12.20;11.57;;;4.80;99.90;;;;;;4940630;29;20192;-78
2021/12/02 04:27:23;;;;;;;13.93;13.07;;;4.90;99.90;;;;;;4962774;28;20215;-80
2021/12/02 04:29:49;;;;;;;17.27;16.53;;;4.90;99.90;;;;;;4940887;29;20725;-80
2021/12/02 04:32:15;;;;;;;29.10;27.63;;;4.90;99.90;;;;;;4943515;29;20184;-79
2021/12/02 04:34:40;;;;;;;14.53;13.93;;;5.00;99.90;;;;;;4941581;29;20641;-80
2021/12/02 04:37:07;;;;;;;16.50;15.80;;;5.00;99.90;;;;;;4958463;28;20180;-80
2021/12/02 04:39:33;;;;;;;17.77;17.03;;;5.10;99.90;;;;;;4956588;29;20232;-79
2021/12/02 04:41:59;;;;;;;12.20;11.70;;;5.10;99.90;;;;;;4956532;28;20180;-80
2021/12/02 04:44:24;;;;;;;13.00;12.50;;;5.10;99.90;;;;;;4939867;29;20215;-80
2021/12/02 04:46:51;;;;;;;6.50;6.20;;;5.10;99.90;;;;;;4939779;29;20561;-80
2021/12/02 04:49:17;;;;;;;7.00;6.60;;;5.10;99.90;;;;;;4940976;29;20598;-80
2021/12/02 04:51:43;;;;;;;5.33;5.13;;;5.10;99.90;;;;;;4940846;29;20247;-80
2021/12/02 04:54:09;;;;;;;6.53;6.23;;;5.10;99.90;;;;;;4938804;29;20305;-80
2021/12/02 04:56:35;;;;;;;6.10;5.90;;;5.20;99.90;;;;;;4954801;29;20505;-80
2021/12/02 04:59:00;;;;;;;4.80;4.60;;;5.20;99.90;;;;;;4940292;29;20210;-80
2021/12/02 05:01:26;;;;;;;4.73;4.53;;;5.20;99.90;;;;;;4938221;29;20603;-80
2021/12/02 05:03:52;;;;;;;5.00;4.70;;;5.20;99.90;;;;;;4941583;29;20192;-79
2021/12/02 05:06:18;;;;;;;5.50;5.33;;;5.20;99.90;;;;;;4946802;29;20242;-80
2021/12/02 05:08:43;;;;;;;6.53;6.33;;;5.20;99.90;;;;;;4940270;29;20188;-80
2021/12/02 05:11:09;;;;;;;6.83;6.53;;;5.20;99.90;;;;;;4939155;29;20360;-80
2021/12/02 05:13:35;;;;;;;6.53;5.60;;;5.20;99.90;;;;;;4941296;29;20194;-78
2021/12/02 05:16:01;;;;;;;5.73;5.33;;;5.10;99.90;;;;;;4939790;29;20189;-79
2021/12/02 05:18:27;;;;;;;5.80;5.60;;;5.10;99.90;;;;;;4951345;29;20221;-79
2021/12/02 05:20:53;;;;;;;5.63;5.43;;;5.00;99.90;;;;;;4952765;29;20236;-80
2021/12/02 05:23:20;;;;;;;6.07;5.77;;;5.00;99.90;;;;;;4947780;29;20282;-80
2021/12/02 05:25:46;;;;;;;6.83;6.43;;;5.00;99.90;;;;;;4957557;29;20196;-80
2021/12/02 05:28:15;;;;;;;5.47;5.30;;;5.00;99.90;;;;;;4942112;29;20193;-80
2021/12/02 05:30:43;;;;;;;4.97;4.87;;;5.00;99.90;;;;;;4940471;29;20297;-80
2021/12/02 05:33:09;;;;;;;4.93;4.63;;;5.00;99.90;;;;;;4940209;29;20193;-80
2021/12/02 05:35:34;;;;;;;5.37;5.17;;;5.00;99.90;;;;;;4941390;29;20575;-79
2021/12/02 05:38:00;;;;;;;5.47;5.23;;;5.00;99.90;;;;;;4939779;29;20188;-81
2021/12/02 05:40:26;;;;;;;6.13;5.93;;;5.00;99.90;;;;;;4937362;29;20893;-81
2021/12/02 05:42:52;;;;;;;5.30;5.10;;;5.00;99.90;;;;;;4948445;29;20210;-80
2021/12/02 05:45:18;;;;;;;5.33;4.93;;;5.00;99.90;;;;;;4942373;29;20296;-80
2021/12/02 05:47:44;;;;;;;5.37;5.03;;;5.00;99.90;;;;;;4945465;29;20191;-80
2021/12/02 05:50:10;;;;;;;5.30;4.90;;;5.10;99.90;;;;;;4947041;29;20742;-80
2021/12/02 05:52:35;;;;;;;5.80;5.60;;;5.10;99.90;;;;;;4945004;29;20183;-80
2021/12/02 05:55:01;;;;;;;8.43;8.07;;;5.10;99.90;;;;;;4942887;29;20272;-80
2021/12/02 05:57:27;;;;;;;7.93;7.63;;;5.20;99.90;;;;;;4938869;29;20579;-80
2021/12/02 05:59:53;;;;;;;6.67;6.37;;;5.10;99.90;;;;;;4949623;29;20205;-80
2021/12/02 06:02:19;;;;;;;9.17;8.37;;;5.10;99.90;;;;;;4950307;29;20181;-80
2021/12/02 06:04:49;;;;;;;9.23;8.83;;;5.10;99.90;;;;;;4939308;29;20637;-79
2021/12/02 06:07:15;;;;;;;9.43;9.03;;;5.10;99.90;;;;;;4950362;29;20193;-80
2021/12/02 06:09:41;;;;;;;7.20;6.90;;;5.10;99.90;;;;;;4942935;29;20255;-80
2021/12/02 06:12:07;;;;;;;8.77;8.37;;;5.10;99.90;;;;;;4939651;29;20261;-79
2021/12/02 06:14:33;;;;;;;7.80;7.40;;;5.10;99.90;;;;;;4938146;29;20183;-80
2021/12/02 06:17:00;;;;;;;7.80;7.50;;;5.10;99.90;;;;;;4938531;29;20179;-79
2021/12/02 06:19:26;;;;;;;7.90;7.60;;;5.10;99.90;;;;;;4939736;29;20223;-80
2021/12/02 06:21:51;;;;;;;7.63;7.33;;;5.00;99.90;;;;;;4937226;29;20194;-80
2021/12/02 06:24:19;;;;;;;8.33;7.83;;;5.00;99.90;;;;;;4938816;29;20242;-79
2021/12/02 06:26:45;;;;;;;9.50;9.10;;;5.00;99.90;;;;;;4955649;29;20230;-79
2021/12/02 06:29:11;;;;;;;7.23;6.93;;;5.00;99.90;;;;;;4953813;28;20203;-79
2021/12/02 06:31:37;;;;;;;9.03;8.60;;;5.00;99.90;;;;;;4937317;29;20222;-79
2021/12/02 06:34:04;;;;;;;7.17;6.57;;;5.00;99.90;;;;;;4934928;29;20222;-70
2021/12/02 06:36:30;;;;;;;9.13;8.53;;;5.10;99.90;;;;;;4933151;29;20195;-70
2021/12/02 06:38:56;;;;;;;8.00;7.70;;;5.10;99.90;;;;;;4934190;29;20213;-70
2021/12/02 06:41:21;;;;;;;9.67;9.27;;;5.20;99.90;;;;;;4932710;29;20239;-70
2021/12/02 06:43:47;;;;;;;13.23;12.63;;;5.10;99.90;;;;;;4933220;29;20290;-69
2021/12/02 06:46:13;;;;;;;8.43;8.03;;;5.10;99.90;;;;;;4931761;29;20698;-69
2021/12/02 06:48:39;;;;;;;6.13;5.83;;;5.10;99.90;;;;;;4932741;29;20188;-73
2021/12/02 06:51:06;;;;;;;11.90;11.37;;;5.10;99.90;;;;;;4922536;29;20219;-73
2021/12/02 06:53:32;;;;;;;9.47;8.87;;;5.10;99.90;;;;;;4913297;29;20639;-74
2021/12/02 06:55:57;;;;;;;7.37;6.97;;;5.00;99.90;;;;;;4916560;29;20191;-73
2021/12/02 06:58:23;;;;;;;6.00;5.60;;;5.00;99.90;;;;;;4952612;28;20211;-74
2021/12/02 07:00:49;;;;;;;5.20;5.00;;;5.00;99.90;;;;;;4950906;28;20207;-76
2021/12/02 07:03:15;;;;;;;6.00;5.50;;;5.00;99.90;;;;;;4934950;29;20195;-75
2021/12/02 07:05:41;;;;;;;6.13;5.93;;;5.10;99.90;;;;;;4933383;29;20266;-73
2021/12/02 07:08:07;;;;;;;12.20;11.70;;;5.10;99.90;;;;;;4932581;29;20229;-73
2021/12/02 07:10:33;;;;;;;9.57;9.03;;;5.00;99.90;;;;;;4934513;29;20690;-73
2021/12/02 07:13:00;;;;;;;10.47;10.07;;;5.00;99.90;;;;;;4936790;29;20227;-73
2021/12/02 07:15:32;;;;;;;10.07;9.67;;;4.90;99.90;;;;;;4952092;29;20582;-73
2021/12/02 07:18:00;;;;;;;11.90;11.40;;;4.90;99.90;;;;;;4935794;29;20236;-73
2021/12/02 07:20:29;;;;;;;8.20;7.80;;;4.80;99.90;;;;;;4937531;29;20228;-73
2021/12/02 07:22:57;;;;;;;7.63;7.33;;;4.70;99.90;;;;;;4937538;29;20189;-73
2021/12/02 07:25:23;;;;;;;8.20;7.80;;;4.60;99.90;;;;;;4936249;29;20596;-74
2021/12/02 07:27:49;;;;;;;7.60;7.30;;;4.50;99.90;;;;;;4936441;29;20188;-74
2021/12/02 07:30:15;;;;;;;7.83;7.53;;;4.50;99.90;;;;;;4935426;29;20209;-73
2021/12/02 07:32:42;;;;;;;5.63;5.43;;;4.50;99.90;;;;;;4935871;29;20190;-74
2021/12/02 07:35:13;;;;;;;6.00;5.70;;;4.40;99.90;;;;;;4936221;29;20244;-74
2021/12/02 07:37:42;;;;;;;5.20;5.00;;;4.40;99.90;;;;;;4935929;29;20216;-73
2021/12/02 07:40:09;;;;;;;5.17;4.97;;;4.50;99.90;;;;;;4935765;29;20207;-74
2021/12/02 07:42:35;;;;;;;5.37;5.17;;;4.50;99.90;;;;;;4935149;29;20188;-74
2021/12/02 07:45:01;;;;;;;5.10;4.80;;;4.50;99.90;;;;;;4934657;29;20196;-73
2021/12/02 07:47:26;;;;;;;5.37;5.17;;;4.60;99.90;;;;;;4934606;29;20250;-75
2021/12/02 07:49:52;;;;;;;5.97;5.67;;;4.70;99.90;;;;;;4935692;29;20913;-74
2021/12/02 07:52:21;;;;;;;4.60;4.40;;;4.80;99.90;;;;;;4935625;29;20218;-74
2021/12/02 07:54:50;;;;;;;5.03;4.83;;;4.90;99.90;;;;;;4934443;29;20543;-73
2021/12/02 07:57:18;;;;;;;5.47;5.27;;;5.00;99.90;;;;;;4935670;29;20380;-74
2021/12/02 07:59:47;;;;;;;8.47;8.07;;;5.10;99.90;;;;;;4935164;29;20203;-74
2021/12/02 08:02:15;;;;;;;5.13;4.83;;;5.20;99.90;;;;;;4933707;29;20197;-74
2021/12/02 08:04:41;;;;;;;5.03;4.77;;;5.30;99.90;;;;;;4934846;29;20248;-74
2021/12/02 08:07:07;;;;;;;12.70;12.20;;;5.40;99.90;;;;;;4935283;29;20326;-75
2021/12/02 08:09:33;;;;;;;9.70;9.30;;;5.40;99.90;;;;;;4934889;29;20267;-72
2021/12/02 08:12:00;;;;;;;8.07;7.67;;;5.50;99.90;;;;;;4933607;29;20215;-75
2021/12/02 08:14:26;;;;;;;8.23;7.93;;;5.60;99.90;;;;;;4935844;29;20332;-74
2021/12/02 08:16:52;;;;;;;6.47;6.27;;;5.80;99.90;;;;;;4935203;29;20277;-74
2021/12/02 08:19:20;;;;;;;20.00;19.03;;;5.90;99.90;;;;;;4934377;29;20218;-74
2021/12/02 08:21:46;;;;;;;17.50;16.70;;;5.90;99.90;;;;;;4934100;29;20186;-72
2021/12/02 08:24:12;;;;;;;6.33;6.13;;;5.90;99.90;;;;;;4934404;29;20196;-72
2021/12/02 08:26:38;;;;;;;6.30;6.10;;;6.00;99.90;;;;;;4933411;29;20685;-74
2021/12/02 08:29:06;;;;;;;4.90;4.70;;;6.00;99.90;;;;;;4948664;28;20236;-74
2021/12/02 08:31:33;;;;;;;4.40;4.30;;;6.00;99.90;;;;;;4932490;29;20338;-74
2021/12/02 08:33:59;;;;;;;4.23;4.10;;;6.10;99.90;;;;;;4934441;29;20267;-74
2021/12/02 08:36:29;;;;;;;4.67;4.30;;;6.10;99.90;;;;;;4934902;29;20188;-73
2021/12/02 08:38:57;;;;;;;4.30;4.20;;;6.10;99.90;;;;;;4934959;29;20654;-75
2021/12/02 08:41:22;;;;;;;4.20;4.00;;;6.10;99.90;;;;;;4934277;29;20194;-75
2021/12/02 08:43:48;;;;;;;4.27;4.17;;;6.30;99.90;;;;;;4949799;28;20729;-74
2021/12/02 08:46:17;;;;;;;4.47;4.37;;;6.70;99.90;;;;;;4949033;28;20767;-74
2021/12/02 08:48:45;;;;;;;5.37;5.17;;;7.20;99.90;;;;;;4934230;29;20195;-73
2021/12/02 08:51:13;;;;;;;6.07;5.87;;;7.00;99.90;;;;;;4933023;29;20213;-74
2021/12/02 08:53:39;;;;;;;11.30;10.70;;;7.00;99.90;;;;;;4933288;29;20192;-74
2021/12/02 08:56:04;;;;;;;13.13;12.50;;;6.90;99.90;;;;;;4934975;29;20313;-76
2021/12/02 08:58:31;;;;;;;8.43;7.73;;;7.00;99.90;;;;;;4932904;28;20190;-74
2021/12/02 09:00:57;;;;;;;9.70;9.23;;;7.00;99.90;;;;;;4934604;29;20696;-74
2021/12/02 09:03:23;;;;;;;5.43;5.23;;;7.10;99.90;;;;;;4947558;28;20193;-74
2021/12/02 09:05:49;;;;;;;5.50;5.30;;;7.30;99.90;;;;;;4934126;29;20179;-74
2021/12/02 09:08:16;;;;;;;6.93;6.73;;;7.50;99.90;;;;;;4934990;29;20309;-74
2021/12/02 09:10:42;;;;;;;5.70;5.50;;;7.50;99.90;;;;;;4933466;29;20254;-76
2021/12/02 09:13:08;;;;;;;6.20;5.80;;;7.30;99.90;;;;;;4938138;29;20196;-74
2021/12/02 09:15:39;;;;;;;5.90;5.70;;;7.20;99.90;;;;;;4934817;29;20588;-75
2021/12/02 09:18:05;;;;;;;6.83;6.53;;;7.10;99.90;;;;;;4934250;29;20197;-76
2021/12/02 09:20:31;;;;;;;6.83;6.47;;;6.90;99.90;;;;;;4933414;29;20311;-75
2021/12/02 09:22:56;;;;;;;7.63;7.33;;;6.80;99.90;;;;;;4933693;29;20190;-74
2021/12/02 09:25:23;;;;;;;10.50;9.90;;;6.80;99.90;;;;;;4933934;29;20236;-75
2021/12/02 09:27:49;;;;;;;12.07;11.57;;;6.70;99.90;;;;;;4934787;29;20193;-75
2021/12/02 09:30:16;;;;;;;10.03;9.63;;;6.70;99.90;;;;;;4934429;29;20217;-75
2021/12/02 09:32:42;;;;;;;7.47;7.13;;;6.70;99.90;;;;;;4933357;29;20731;-76
2021/12/02 09:35:09;;;;;;;6.50;6.30;;;6.80;99.90;;;;;;4933409;29;20223;-75
2021/12/02 09:37:35;;;;;;;7.17;6.70;;;6.90;99.90;;;;;;4934342;29;20269;-75
2021/12/02 09:40:01;;;;;;;6.07;5.77;;;7.00;99.90;;;;;;4933837;29;20265;-77
2021/12/02 09:42:27;;;;;;;7.07;6.73;;;7.10;99.90;;;;;;4932580;29;20182;-77
2021/12/02 09:45:00;;;;;;;9.23;8.83;;;7.20;99.90;;;;;;4934204;29;20518;-76
2021/12/02 09:47:31;;;;;;;10.90;10.40;;;7.20;99.90;;;;;;4933898;29;20322;-76
2021/12/02 09:50:03;;;;;;;9.73;9.33;;;7.20;99.90;;;;;;4933726;29;20741;-77
2021/12/02 09:52:34;;;;;;;10.43;9.93;;;7.20;99.90;;;;;;4932181;29;20646;-76
2021/12/02 09:55:06;;;;;;;9.40;9.00;;;7.10;99.90;;;;;;4933023;29;20192;-76
2021/12/02 09:57:39;;;;;;;7.70;7.40;;;7.00;99.90;;;;;;4932773;29;20186;-76
2021/12/02 10:00:07;;;;;;;10.13;9.50;;;7.00;99.90;;;;;;4932688;29;20219;-77
2021/12/02 10:02:41;;;;;;;8.20;7.90;;;7.00;99.90;;;;;;4933845;29;20663;-76
2021/12/02 10:05:10;;;;;;;6.60;6.30;;;6.90;99.90;;;;;;4934192;29;20189;-76
2021/12/02 10:07:51;;;;;;;6.47;6.27;;;6.80;99.90;;;;;;4932528;29;20237;-76
2021/12/02 10:10:37;;;;;;;7.93;7.60;;;6.80;99.90;;;;;;4933221;29;20221;-76
2021/12/02 10:13:27;;;;;;;10.20;9.80;;;6.80;99.90;;;;;;4933613;29;20186;-75
2021/12/02 10:16:10;;;;;;;17.60;16.80;;;6.80;99.90;;;;;;4933127;29;20185;-76
2021/12/02 10:18:54;;;;;;;14.07;13.37;;;6.60;99.90;;;;;;4948393;29;20239;-76
2021/12/02 10:21:26;;;;;;;9.13;5.87;;;6.40;99.90;;;;;;4932172;29;20198;-75
2021/12/02 10:23:53;;;;;;;7.90;7.43;;;6.20;99.90;;;;;;4933641;29;20603;-75
2021/12/02 10:26:21;;;;;;;5.80;5.40;;;6.00;99.90;;;;;;4933679;29;20605;-76
2021/12/02 10:28:51;;;;;;;13.33;12.57;;;5.80;99.90;;;;;;4933524;29;20680;-75
2021/12/02 10:31:20;;;;;;;34.23;32.63;;;5.60;99.90;;;;;;4932180;29;20216;-75
2021/12/02 10:33:57;;;;;;;8.70;8.40;;;5.10;99.90;;;;;;4932637;29;20188;-72
2021/12/02 10:36:39;;;;;;;52.20;49.50;;;4.50;99.90;;;;;;4932810;29;20182;-74
2021/12/02 10:39:22;;;;;;;12.60;12.10;;;4.20;99.90;;;;;;4948313;28;20210;-74
2021/12/02 10:42:07;;;;;;;6.27;6.07;;;3.80;99.90;;;;;;4933023;29;20205;-75
2021/12/02 10:44:35;;;;;;;6.83;6.60;;;3.60;99.90;;;;;;4932128;29;20291;-74
2021/12/02 10:47:14;;;;;;;8.13;7.83;;;3.50;99.90;;;;;;4936819;29;20183;-76
2021/12/02 10:49:42;;;;;;;10.67;10.27;;;3.60;99.90;;;;;;4935715;29;20217;-76
2021/12/02 10:52:17;;;;;;;10.17;9.77;;;3.60;99.90;;;;;;4935751;29;20632;-75
2021/12/02 10:54:47;;;;;;;13.90;13.30;;;3.70;99.90;;;;;;4937251;29;20654;-75
2021/12/02 10:57:19;;;;;;;10.97;10.50;;;3.80;99.90;;;;;;4937496;29;20182;-74
2021/12/02 10:59:56;;;;;;;8.87;8.50;;;3.80;99.90;;;;;;4936553;29;20238;-73
2021/12/02 11:02:25;;;;;;;6.90;6.70;;;3.90;99.90;;;;;;4935687;29;20187;-74
2021/12/02 11:04:54;;;;;;;6.13;5.93;;;3.80;99.90;;;;;;4952138;28;20660;-75
2021/12/02 11:07:32;;;;;;;6.10;5.90;;;3.80;99.90;;;;;;4951437;29;20235;-74
2021/12/02 11:10:00;;;;;;;7.90;7.50;;;3.80;99.90;;;;;;4936257;29;20298;-73
2021/12/02 11:12:32;;;;;;;6.30;6.00;;;3.80;99.90;;;;;;4935648;29;20267;-75
2021/12/02 11:15:01;;;;;;;8.37;7.77;;;3.80;99.90;;;;;;4935802;29;20192;-75
2021/12/02 11:17:30;;;;;;;11.37;10.93;;;3.80;99.90;;;;;;4936699;29;20680;-74
2021/12/02 11:19:58;;;;;;;14.70;13.63;;;3.90;99.90;;;;;;4936365;29;20223;-73
2021/12/02 11:22:28;;;;;;;16.53;15.43;;;3.90;99.90;;;;;;4935568;29;20196;-74
2021/12/02 11:24:54;;;;;;;13.97;13.37;;;3.90;99.90;;;;;;4936983;29;20187;-75
2021/12/02 11:27:43;;;;;;;14.40;13.77;;;4.00;99.90;;;;;;4936479;29;20278;-74
2021/12/02 11:30:16;;;;;;;20.83;19.93;;;4.00;99.90;;;;;;4935612;29;20207;-74
2021/12/02 11:32:45;;;;;;;18.80;17.93;;;4.00;99.90;;;;;;4935339;29;20194;-74
2021/12/02 11:35:13;;;;;;;17.60;16.87;;;4.10;99.90;;;;;;4936617;29;20580;-73
2021/12/02 11:37:41;;;;;;;26.50;25.30;;;4.00;99.90;;;;;;4936347;29;20190;-73
2021/12/02 11:40:23;;;;;;;35.47;33.73;;;4.00;99.90;;;;;;4950754;28;20206;-73
2021/12/02 11:42:50;;;;;;;16.87;16.00;;;4.00;99.90;;;;;;4936457;29;20193;-73
2021/12/02 11:45:19;;;;;;;11.20;10.70;;;4.00;99.90;;;;;;4936385;29;20177;-72
2021/12/02 11:47:46;;;;;;;15.93;15.13;;;4.00;99.90;;;;;;4935942;29;20191;-73
2021/12/02 11:50:13;;;;;;;13.43;12.73;;;4.10;99.90;;;;;;4934626;29;20207;-73
2021/12/02 11:52:41;;;;;;;12.73;12.10;;;4.20;99.90;;;;;;4936320;29;20320;-73
2021/12/02 11:55:22;;;;;;;12.67;12.07;;;4.30;99.90;;;;;;4935177;29;20195;-73
2021/12/02 11:57:49;;;;;;;13.97;13.27;;;4.30;99.90;;;;;;4934108;29;20193;-73
2021/12/02 12:00:18;;;;;;;25.00;23.80;;;4.40;99.90;;;;;;4935962;29;20198;-72
2021/12/02 12:02:52;;;;;;;14.87;14.10;;;4.50;99.90;;;;;;4935962;29;20249;-72
2021/12/02 12:05:25;;;;;;;15.93;15.13;;;4.50;99.90;;;;;;4936096;29;20215;-74
2021/12/02 12:07:52;;;;;;;15.23;14.53;;;4.60;99.90;;;;;;4932174;29;20569;-74
2021/12/02 12:10:38;;;;;;;19.27;18.27;;;4.70;99.90;;;;;;4917330;29;20217;-74
2021/12/02 12:13:15;;;;;;;16.07;15.37;;;4.70;99.90;;;;;;4917570;29;20247;-75
2021/12/02 12:15:48;;;;;;;15.37;14.67;;;4.80;99.90;;;;;;4920664;29;20631;-75
2021/12/02 12:18:26;;;;;;;16.43;15.63;;;4.90;99.90;;;;;;4935073;29;20183;-75
2021/12/02 12:20:54;;;;;;;18.47;17.67;;;4.80;99.90;;;;;;4935782;29;20321;-75
2021/12/02 12:23:37;;;;;;;18.33;17.53;;;4.90;99.90;;;;;;4935752;29;20291;-76
2021/12/02 12:26:12;;;;;;;21.80;20.80;;;4.90;99.90;;;;;;4935624;29;20680;-76
2021/12/02 12:29:09;;;;;;;23.90;22.80;;;4.90;99.90;;;;;;4934896;29;20197;-75
2021/12/02 12:37:31;;;;;;;19.10;18.20;;;5.20;99.90;;;;;;4935457;29;20279;-75
2021/12/02 12:40:14;;;;;;;23.93;22.70;;;5.30;99.90;;;;;;4934266;29;20200;-75
2021/12/02 12:42:47;;;;;;;17.20;16.40;;;5.40;99.90;;;;;;4935537;29;20187;-74
2021/12/02 12:45:27;;;;;;;7.57;7.20;;;5.40;99.90;;;;;;4935556;29;20223;-74
2021/12/02 12:47:59;;;;;;;5.77;5.47;;;5.40;99.90;;;;;;4917256;29;20186;-75
2021/12/02 12:50:43;;;;;;;6.17;5.67;;;5.40;99.90;;;;;;4933686;29;20216;-75
2021/12/02 12:53:18;;;;;;;6.80;6.30;;;5.40;99.90;;;;;;4934501;29;20203;-75
2021/12/02 12:55:53;;;;;;;6.20;5.90;;;5.40;99.90;;;;;;4935121;29;20207;-74
2021/12/02 12:58:21;;;;;;;6.83;6.13;;;5.30;99.90;;;;;;4935998;29;20189;-74
2021/12/02 13:00:47;;;;;;;5.97;5.67;;;5.30;99.90;;;;;;4933843;29;20211;-74
2021/12/02 13:03:22;;;;;;;6.17;5.77;;;5.20;99.90;;;;;;4934928;29;20667;-74
2021/12/02 13:05:59;;;;;;;6.23;5.93;;;5.20;99.90;;;;;;4934792;29;20192;-74
2021/12/02 13:08:34;;;;;;;6.13;5.83;;;5.20;99.90;;;;;;4929345;29;20685;-74
2021/12/02 13:11:24;;;;;;;6.17;5.87;;;5.30;99.90;;;;;;4934662;29;20232;-75
2021/12/02 13:13:52;;;;;;;5.97;5.67;;;5.20;99.90;;;;;;4934674;29;20662;-77
2021/12/02 13:16:21;;;;;;;5.73;5.53;;;5.30;99.90;;;;;;4934746;29;20179;-76